Time;durP1;ratioP1;P1;durP2;ratioP2;P2;SDS_P1;SDS_P2;PMS_P1;PMS_P2;Temp;Humidity;BMP_temperature;BMP_pressure;BME280_temperature;BME280_humidity;BME280_pressure;Samples;Min_cycle;Max_cycle;Signal;HPM_P1;HPM_P2
2022/09/10 00:02:18;;;;;;;5.13;2.42;;;;;;;16.44;71.60;98329.31;5049323;28;20547;-82
2022/09/10 00:04:43;;;;;;;3.05;1.65;;;;;;;16.53;71.97;98347.50;5066709;28;20025;-83
2022/09/10 00:07:08;;;;;;;3.35;1.90;;;;;;;16.57;72.10;98351.19;5049349;28;20480;-82
2022/09/10 00:09:34;;;;;;;3.33;2.25;;;;;;;16.31;72.73;98340.88;5064145;28;20119;-83
2022/09/10 00:11:59;;;;;;;1.58;1.35;;;;;;;16.46;72.00;98353.25;5061073;28;20054;-82
2022/09/10 00:14:25;;;;;;;4.82;1.50;;;;;;;16.50;72.50;98354.28;5065051;28;20052;-83
2022/09/10 00:16:51;;;;;;;6.07;1.90;;;;;;;16.45;71.86;98346.25;5062229;28;20518;-83
2022/09/10 00:19:17;;;;;;;4.78;1.70;;;;;;;16.40;72.33;98367.94;5056907;28;20032;-83
2022/09/10 00:21:44;;;;;;;4.82;1.67;;;;;;;16.39;71.88;98348.28;5066958;28;20025;-83
2022/09/10 00:24:09;;;;;;;3.55;1.70;;;;;;;16.37;71.94;98347.78;5068722;28;20028;-83
2022/09/10 00:26:39;;;;;;;3.00;1.52;;;;;;;16.31;72.24;98348.97;5065459;28;20040;-83
2022/09/10 00:29:07;;;;;;;5.82;1.83;;;;;;;16.45;72.00;98370.50;5065023;28;20046;-83
2022/09/10 00:31:33;;;;;;;4.40;1.88;;;;;;;15.97;73.93;98367.31;5069610;28;20032;-83
2022/09/10 00:34:00;;;;;;;1.63;1.48;;;;;;;15.59;75.16;98360.41;5067922;28;20538;-83
2022/09/10 00:36:31;;;;;;;6.43;1.73;;;;;;;15.25;76.97;98382.13;5064857;28;20029;-83
2022/09/10 00:39:01;;;;;;;7.15;2.03;;;;;;;15.36;76.53;98372.00;5061488;28;20029;-83
2022/09/10 00:41:27;;;;;;;5.30;1.80;;;;;;;15.09;77.25;98361.13;5067329;28;20028;-82
2022/09/10 00:44:02;;;;;;;5.63;1.75;;;;;;;14.67;79.45;98375.34;5064609;28;20052;-83
2022/09/10 00:46:42;;;;;;;2.95;1.85;;;;;;;14.97;77.46;98372.28;5067434;28;20174;-83
2022/09/10 00:49:21;;;;;;;3.80;3.15;;;;;;;15.26;76.20;98375.66;5065130;28;20033;-82
2022/09/10 00:51:49;;;;;;;3.00;1.42;;;;;;;14.66;79.51;98385.28;5070142;28;20032;-83
2022/09/10 00:54:16;;;;;;;4.10;2.20;;;;;;;14.91;77.21;98374.25;5069323;28;20058;-83
2022/09/10 00:56:42;;;;;;;8.80;1.80;;;;;;;14.39;79.97;98379.66;5056996;28;20110;-82
2022/09/10 00:59:09;;;;;;;3.40;1.60;;;;;;;14.69;79.03;98378.53;5067348;28;20381;-83
2022/09/10 01:01:37;;;;;;;3.03;1.55;;;;;;;15.62;74.74;98384.03;5081655;28;20031;-83
2022/09/10 01:04:05;;;;;;;1.63;1.48;;;;;;;15.80;73.32;98393.19;5064202;28;20055;-83
2022/09/10 01:06:30;;;;;;;3.05;1.63;;;;;;;15.13;76.18;98371.00;5067928;28;20039;-83
2022/09/10 01:08:56;;;;;;;4.45;1.90;;;;;;;15.15;75.93;98373.38;5045564;28;20036;-83
2022/09/10 01:11:41;;;;;;;2.80;1.45;;;;;;;14.59;78.35;98384.03;5063600;28;20178;-82
2022/09/10 01:14:21;;;;;;;7.05;2.03;;;;;;;14.09;82.05;98401.38;5065922;28;20046;-83
2022/09/10 01:17:05;;;;;;;1.58;1.48;;;;;;;15.63;74.24;98396.41;5072080;28;20072;-83
2022/09/10 01:19:48;;;;;;;3.08;1.50;;;;;;;16.12;71.58;98385.91;5065047;28;20025;-83
2022/09/10 01:22:32;;;;;;;1.80;1.38;;;;;;;16.16;71.68;98408.47;5069497;28;20428;-83
2022/09/10 01:25:16;;;;;;;2.20;1.52;;;;;;;16.31;70.97;98399.34;5064620;28;20029;-84
2022/09/10 01:27:47;;;;;;;3.90;1.83;;;;;;;15.84;72.51;98372.66;5063327;28;20028;-84
2022/09/10 01:30:29;;;;;;;3.25;1.45;;;;;;;16.29;71.37;98402.31;5068610;28;20033;-83
2022/09/10 01:33:15;;;;;;;3.47;1.55;;;;;;;15.80;73.03;98403.94;5066564;28;20034;-83
2022/09/10 01:35:45;;;;;;;3.67;1.55;;;;;;;15.42;73.50;98376.25;5066674;28;20044;-83
2022/09/10 01:38:16;;;;;;;3.92;1.77;;;;;;;15.65;73.49;98388.84;5063032;28;20060;-82
2022/09/10 01:40:42;;;;;;;4.57;1.58;;;;;;;16.08;71.69;98411.84;5065939;28;20029;-83
2022/09/10 01:43:10;;;;;;;3.20;1.40;;;;;;;15.82;72.08;98399.88;5069230;28;20047;-82
2022/09/10 01:46:07;;;;;;;3.67;1.90;;;;;;;15.25;75.47;98392.88;5048664;28;20398;-82
2022/09/10 01:48:53;;;;;;;5.55;2.60;;;;;;;14.83;76.01;98390.19;5066177;28;20034;-82
2022/09/10 01:51:41;;;;;;;3.15;1.20;;;;;;;16.11;71.41;98402.38;5054612;28;20039;-83
2022/09/10 01:54:24;;;;;;;2.28;1.40;;;;;;;15.92;71.74;98393.53;5069631;28;20103;-82
2022/09/10 01:56:55;;;;;;;3.15;1.42;;;;;;;15.96;71.70;98408.00;5063310;28;20021;-83
2022/09/10 01:59:40;;;;;;;3.30;1.55;;;;;;;15.88;71.97;98403.31;5063948;28;20029;-83
2022/09/10 02:02:13;;;;;;;3.10;1.20;;;;;;;15.94;71.40;98378.69;5063354;28;20408;-82
2022/09/10 02:04:42;;;;;;;4.82;1.33;;;;;;;16.16;70.27;98384.22;5063571;28;20012;-83
2022/09/10 02:07:11;;;;;;;2.95;1.50;;;;;;;16.06;70.45;98389.78;5043480;28;20046;-83
2022/09/10 02:09:37;;;;;;;1.90;1.17;;;;;;;16.28;70.64;98400.72;5047911;28;20037;-83
2022/09/10 02:12:03;;;;;;;5.00;2.10;;;;;;;15.58;73.50;98397.28;5061542;28;20381;-82
2022/09/10 02:14:28;;;;;;;2.67;1.30;;;;;;;15.98;71.14;98395.06;5062100;28;20049;-83
2022/09/10 02:16:57;;;;;;;2.72;1.42;;;;;;;16.18;71.17;98398.22;5048407;28;20033;-82
2022/09/10 02:19:25;;;;;;;1.88;1.27;;;;;;;16.18;70.83;98384.75;5059877;28;20051;-83
2022/09/10 02:21:52;;;;;;;1.50;1.35;;;;;;;16.30;70.37;98397.72;5036545;28;20032;-83
2022/09/10 02:24:18;;;;;;;2.47;1.15;;;;;;;16.41;70.28;98393.75;5058024;28;20067;-82
2022/09/10 02:26:46;;;;;;;3.17;1.80;;;;;;;15.82;72.77;98397.19;5045733;28;20028;-83
2022/09/10 02:29:13;;;;;;;1.33;1.20;;;;;;;15.94;72.49;98407.50;5063044;28;20025;-83
2022/09/10 02:31:40;;;;;;;1.45;1.30;;;;;;;16.34;70.79;98418.38;5065941;28;20047;-83
2022/09/10 02:34:05;;;;;;;3.65;1.40;;;;;;;16.48;70.55;98415.72;5063900;28;20028;-83
2022/09/10 02:36:31;;;;;;;2.58;1.30;;;;;;;16.43;70.20;98408.53;5067103;28;20357;-82
2022/09/10 02:39:02;;;;;;;5.85;1.70;;;;;;;15.90;72.67;98371.50;5058397;28;20079;-82
2022/09/10 02:41:31;;;;;;;3.13;1.40;;;;;;;16.18;72.33;98406.28;5068849;28;20025;-83
2022/09/10 02:43:56;;;;;;;6.65;2.20;;;;;;;15.40;76.08;98398.03;5067715;28;20024;-83
2022/09/10 02:46:22;;;;;;;3.40;1.30;;;;;;;16.19;71.68;98415.16;5047794;28;20396;-83
2022/09/10 02:48:47;;;;;;;4.32;1.10;;;;;;;16.36;71.10;98413.50;5066051;28;20051;-83
2022/09/10 02:51:13;;;;;;;3.10;1.27;;;;;;;16.42;71.20;98412.31;5058884;28;20489;-83
2022/09/10 02:53:38;;;;;;;3.75;1.20;;;;;;;15.97;72.61;98406.91;5071003;28;20039;-83
2022/09/10 02:56:04;;;;;;;1.27;1.23;;;;;;;16.29;71.41;98405.00;5066126;28;20047;-83
2022/09/10 02:58:30;;;;;;;2.92;1.35;;;;;;;16.31;71.85;98402.84;5070564;28;20143;-83
2022/09/10 03:01:07;;;;;;;6.18;1.67;;;;;;;15.55;76.03;98397.84;5071748;28;20115;-83
2022/09/10 03:03:33;;;;;;;4.80;1.15;;;;;;;15.83;73.41;98390.72;5067568;28;20028;-83
2022/09/10 03:05:58;;;;;;;1.88;1.40;;;;;;;16.20;71.79;98384.44;5063667;28;20077;-83
2022/09/10 03:08:24;;;;;;;1.70;1.17;;;;;;;16.33;71.27;98380.97;5054962;28;20065;-83
2022/09/10 03:10:49;;;;;;;1.45;1.20;;;;;;;16.36;71.84;98396.53;5043907;28;20028;-83
2022/09/10 03:13:14;;;;;;;3.35;1.70;;;;;;;16.28;72.05;98397.22;5072259;28;20029;-83
2022/09/10 03:15:42;;;;;;;4.30;1.52;;;;;;;16.32;71.75;98390.16;5052020;28;20495;-83
2022/09/10 03:18:08;;;;;;;2.78;1.40;;;;;;;16.23;71.82;98390.03;5046320;28;20481;-83
2022/09/10 03:20:33;;;;;;;2.05;0.93;;;;;;;16.32;71.41;98371.28;5079063;28;20028;-83
2022/09/10 03:22:59;;;;;;;5.00;1.33;;;;;;;16.18;71.75;98390.13;5066968;28;20467;-83
2022/09/10 03:25:24;;;;;;;3.20;1.38;;;;;;;16.38;71.22;98388.97;5076159;28;20117;-83
2022/09/10 03:27:50;;;;;;;2.95;1.38;;;;;;;16.40;71.39;98384.88;5064776;28;20043;-83
2022/09/10 03:30:15;;;;;;;4.43;1.17;;;;;;;16.16;71.79;98380.75;5067363;28;20123;-82
2022/09/10 03:32:40;;;;;;;4.00;1.70;;;;;;;15.87;74.62;98394.41;5057835;28;20028;-82
2022/09/10 03:35:06;;;;;;;2.20;1.25;;;;;;;15.90;72.73;98369.59;5065893;28;20029;-82
2022/09/10 03:37:32;;;;;;;4.00;1.17;;;;;;;16.10;72.55;98376.53;5060478;28;20058;-82
2022/09/10 03:39:57;;;;;;;5.25;1.90;;;;;;;15.34;76.35;98371.50;5064810;28;20025;-83
2022/09/10 03:42:23;;;;;;;3.70;1.70;;;;;;;14.92;79.12;98400.00;5065770;28;20036;-82
2022/09/10 03:44:49;;;;;;;5.15;2.25;;;;;;;14.38;81.58;98377.25;5068035;28;20044;-82
2022/09/10 03:47:14;;;;;;;2.78;1.88;;;;;;;14.71;79.88;98387.09;5067366;28;20040;-82
2022/09/10 03:49:40;;;;;;;3.75;1.40;;;;;;;15.38;75.73;98397.53;5047077;28;20029;-82
2022/09/10 03:52:05;;;;;;;6.50;1.70;;;;;;;15.10;78.54;98393.06;5059379;28;20504;-83
2022/09/10 03:54:30;;;;;;;6.70;2.25;;;;;;;14.67;80.68;98411.06;5069552;28;20024;-82
2022/09/10 03:56:56;;;;;;;4.15;1.80;;;;;;;14.86;78.91;98390.41;5067962;28;20495;-82
2022/09/10 03:59:21;;;;;;;2.00;1.10;;;;;;;15.64;74.02;98390.72;5051167;28;20033;-82
2022/09/10 04:01:47;;;;;;;3.58;1.70;;;;;;;15.87;74.69;98415.94;5062746;28;20036;-83
2022/09/10 04:04:13;;;;;;;4.85;1.27;;;;;;;15.93;73.15;98411.28;5046466;28;20697;-82
2022/09/10 04:06:39;;;;;;;1.85;1.50;;;;;;;15.57;75.66;98406.44;5031603;28;20033;-82
2022/09/10 04:09:05;;;;;;;5.78;2.75;;;;;;;14.63;80.32;98414.59;5057311;28;20024;-82
2022/09/10 04:11:30;;;;;;;3.53;1.58;;;;;;;15.53;75.11;98405.41;5046020;28;20037;-82
2022/09/10 04:13:56;;;;;;;4.18;1.63;;;;;;;15.19;76.56;98402.09;5065957;28;20032;-82
2022/09/10 04:16:22;;;;;;;4.53;2.38;;;;;;;14.66;80.57;98412.13;5069940;28;20112;-82
2022/09/10 04:18:48;;;;;;;2.75;1.48;;;;;;;15.50;75.79;98410.59;5057583;28;20571;-82
2022/09/10 04:21:14;;;;;;;3.92;1.63;;;;;;;15.44;75.90;98412.53;5064114;28;20032;-82
2022/09/10 04:23:40;;;;;;;5.00;2.05;;;;;;;15.40;76.83;98408.78;5066488;28;20488;-82
2022/09/10 04:26:17;;;;;;;5.65;2.33;;;;;;;15.30;77.04;98400.06;5062673;28;20098;-82
2022/09/10 04:28:43;;;;;;;6.57;2.95;;;;;;;14.94;78.51;98405.09;5059393;28;20039;-83
2022/09/10 04:31:09;;;;;;;6.97;2.60;;;;;;;15.33;76.75;98412.94;5067722;28;20089;-82
2022/09/10 04:33:36;;;;;;;3.40;1.77;;;;;;;15.41;75.01;98399.66;5061344;28;20353;-83
2022/09/10 04:36:02;;;;;;;3.08;1.70;;;;;;;15.51;73.98;98374.50;5066907;28;20028;-82
2022/09/10 04:38:32;;;;;;;3.50;1.77;;;;;;;15.51;75.69;98422.94;5073013;28;20669;-83
2022/09/10 04:41:02;;;;;;;2.67;1.48;;;;;;;15.65;74.31;98413.06;5055574;28;20041;-83
2022/09/10 04:43:27;;;;;;;3.75;1.67;;;;;;;16.16;72.08;98418.44;5068379;28;20084;-83
2022/09/10 04:45:54;;;;;;;4.38;1.48;;;;;;;15.83;73.30;98416.81;5070469;28;20488;-83
2022/09/10 04:48:21;;;;;;;8.63;2.33;;;;;;;15.14;76.31;98406.72;5049953;28;20078;-83
2022/09/10 04:50:46;;;;;;;8.10;1.80;;;;;;;15.45;73.88;98399.88;5067945;28;20443;-83
2022/09/10 04:53:12;;;;;;;2.42;1.30;;;;;;;15.86;72.13;98390.13;5069039;28;20037;-84
2022/09/10 04:55:41;;;;;;;1.85;1.27;;;;;;;16.15;71.65;98425.72;5062224;28;20103;-83
2022/09/10 04:58:07;;;;;;;3.85;1.80;;;;;;;15.16;75.50;98410.72;5061552;28;20400;-83
2022/09/10 05:00:33;;;;;;;2.85;1.80;;;;;;;15.65;73.91;98427.31;5061635;28;20035;-83
2022/09/10 05:02:58;;;;;;;3.45;1.60;;;;;;;16.00;71.82;98420.59;5068982;28;20470;-82
2022/09/10 05:05:23;;;;;;;7.35;2.38;;;;;;;15.30;74.90;98410.81;5059430;28;20071;-83
2022/09/10 05:07:49;;;;;;;4.60;2.22;;;;;;;14.93;77.58;98436.56;5049226;28;20392;-82
2022/09/10 05:10:14;;;;;;;4.32;1.83;;;;;;;15.79;72.47;98415.81;5048159;28;20037;-81
2022/09/10 05:12:40;;;;;;;2.33;1.40;;;;;;;15.98;71.95;98424.66;5051486;28;20033;-82
2022/09/10 05:15:06;;;;;;;2.47;1.48;;;;;;;16.01;71.45;98421.41;5074570;28;20393;-82
2022/09/10 05:17:32;;;;;;;3.78;2.17;;;;;;;15.91;72.45;98430.41;5057647;28;20028;-82
2022/09/10 05:19:58;;;;;;;1.52;1.17;;;;;;;16.08;72.22;98433.38;5062908;28;20432;-82
2022/09/10 05:22:23;;;;;;;5.60;3.05;;;;;;;16.08;71.97;98414.53;5073576;28;20027;-83
2022/09/10 05:24:49;;;;;;;3.28;1.58;;;;;;;16.24;72.09;98432.03;5066972;28;20021;-83
2022/09/10 05:27:15;;;;;;;1.73;1.42;;;;;;;16.11;71.77;98413.94;5071156;28;20024;-82
2022/09/10 05:29:41;;;;;;;2.97;2.13;;;;;;;16.30;72.02;98433.53;5049682;28;20083;-82
2022/09/10 05:32:08;;;;;;;3.35;1.45;;;;;;;16.05;72.73;98420.50;5065453;28;20036;-82
2022/09/10 05:34:34;;;;;;;3.65;1.80;;;;;;;16.29;72.16;98429.25;5067549;28;20032;-83
2022/09/10 05:36:59;;;;;;;5.75;1.73;;;;;;;16.25;72.25;98412.06;5067526;28;20033;-82
2022/09/10 05:39:24;;;;;;;5.55;1.50;;;;;;;16.36;71.92;98418.09;5044310;28;20095;-82
2022/09/10 05:41:50;;;;;;;3.38;1.73;;;;;;;16.41;72.32;98426.88;5066163;28;20472;-82
2022/09/10 05:44:16;;;;;;;4.88;1.83;;;;;;;16.49;72.17;98412.72;5061580;28;20060;-83
2022/09/10 05:46:41;;;;;;;3.88;1.65;;;;;;;16.40;72.21;98403.72;5068611;28;20800;-83
2022/09/10 05:49:07;;;;;;;2.22;1.55;;;;;;;16.11;72.71;98381.63;5059062;28;20036;-83
2022/09/10 05:51:33;;;;;;;4.18;1.45;;;;;;;16.44;73.08;98415.53;5063224;28;20024;-82
2022/09/10 05:53:59;;;;;;;5.82;1.73;;;;;;;16.45;72.59;98392.88;5063635;28;20044;-82
2022/09/10 05:56:24;;;;;;;3.08;1.60;;;;;;;16.47;72.62;98398.75;5059490;28;20693;-82
2022/09/10 05:58:50;;;;;;;4.90;1.48;;;;;;;16.62;72.50;98402.31;5063891;28;20032;-82
2022/09/10 06:01:15;;;;;;;4.45;1.70;;;;;;;16.59;72.27;98386.72;5062847;28;20507;-82
2022/09/10 06:03:41;;;;;;;3.53;1.50;;;;;;;16.64;72.15;98397.41;5061418;28;20499;-82
2022/09/10 06:06:07;;;;;;;3.35;1.60;;;;;;;16.57;72.32;98394.31;5057864;28;20037;-82
2022/09/10 06:08:32;;;;;;;1.52;1.40;;;;;;;16.61;72.62;98390.72;5062553;28;20559;-82
2022/09/10 06:11:01;;;;;;;5.07;1.40;;;;;;;16.62;72.07;98386.16;5059449;28;20570;-83
2022/09/10 06:13:27;;;;;;;2.63;1.58;;;;;;;16.71;72.07;98397.84;5062617;28;20098;-83
2022/09/10 06:15:52;;;;;;;4.95;1.75;;;;;;;16.45;74.00;98402.84;5054915;28;20036;-82
2022/09/10 06:18:18;;;;;;;7.10;2.50;;;;;;;16.21;73.87;98400.31;5061148;28;20040;-82
2022/09/10 06:20:44;;;;;;;6.90;1.63;;;;;;;16.45;73.24;98398.25;5054515;28;20112;-82
2022/09/10 06:23:10;;;;;;;25.75;3.95;;;;;;;16.37;73.94;98406.22;5059548;28;20488;-82
2022/09/10 06:25:36;;;;;;;10.32;2.30;;;;;;;15.86;75.97;98397.41;5028579;28;20055;-83
2022/09/10 06:28:01;;;;;;;4.93;2.00;;;;;;;16.27;74.20;98396.41;5068486;28;20040;-83
2022/09/10 06:30:27;;;;;;;7.85;2.10;;;;;;;16.31;74.41;98405.53;5066153;28;20109;-83
2022/09/10 06:32:52;;;;;;;6.20;1.80;;;;;;;16.60;73.50;98409.91;5069955;28;20584;-83
2022/09/10 06:35:17;;;;;;;3.55;1.90;;;;;;;16.27;73.80;98392.94;5065496;28;20044;-82
2022/09/10 06:37:44;;;;;;;6.68;2.00;;;;;;;16.29;74.20;98406.91;5057650;28;20039;-83
2022/09/10 06:40:09;;;;;;;5.13;1.80;;;;;;;16.05;74.84;98384.72;5061713;28;20090;-82
2022/09/10 06:42:35;;;;;;;1.85;1.50;;;;;;;16.42;73.73;98400.75;5068415;28;20032;-82
2022/09/10 06:45:00;;;;;;;4.65;1.90;;;;;;;16.44;74.06;98396.69;5063093;28;20500;-83
2022/09/10 06:47:26;;;;;;;4.45;1.80;;;;;;;16.42;73.89;98384.59;5046579;28;20056;-83
2022/09/10 06:49:51;;;;;;;3.85;1.15;;;;;;;16.56;72.71;98393.50;5029064;28;20029;-83
2022/09/10 06:52:17;;;;;;;1.73;1.30;;;;;;;16.47;72.98;98387.19;5029574;28;20037;-82
2022/09/10 06:54:42;;;;;;;3.45;1.50;;;;;;;16.91;71.78;98413.59;5067122;28;20052;-83
2022/09/10 06:57:08;;;;;;;1.83;1.50;;;;;;;16.62;72.93;98415.78;5070116;28;20178;-83
2022/09/10 06:59:33;;;;;;;5.00;1.67;;;;;;;16.26;74.64;98408.31;5050926;28;20384;-83
2022/09/10 07:01:59;;;;;;;1.98;1.40;;;;;;;16.68;72.62;98399.22;5044473;28;20041;-83
2022/09/10 07:04:25;;;;;;;2.83;1.67;;;;;;;16.80;72.67;98417.56;5067275;28;20033;-83
2022/09/10 07:06:50;;;;;;;4.65;1.92;;;;;;;17.06;72.26;98415.97;5052111;28;20032;-83
2022/09/10 07:09:16;;;;;;;6.80;1.70;;;;;;;16.89;72.37;98431.97;5062882;28;20025;-84
2022/09/10 07:11:41;;;;;;;5.70;1.38;;;;;;;17.02;71.28;98423.88;5067929;28;20059;-84
2022/09/10 07:14:11;;;;;;;5.13;1.50;;;;;;;17.03;72.55;98435.47;5037930;28;20492;-83
2022/09/10 07:16:40;;;;;;;5.55;1.40;;;;;;;16.95;72.74;98428.88;5072763;28;20035;-83
2022/09/10 07:19:06;;;;;;;2.83;1.60;;;;;;;16.87;72.54;98426.88;5051807;28;20492;-84
2022/09/10 07:21:36;;;;;;;4.82;1.80;;;;;;;16.79;73.55;98434.88;5066518;28;20053;-83
2022/09/10 07:24:03;;;;;;;5.45;1.50;;;;;;;17.14;72.08;98439.56;5069275;28;20036;-84
2022/09/10 07:26:29;;;;;;;7.97;2.00;;;;;;;17.07;71.18;98415.69;5056862;28;20032;-84
2022/09/10 07:28:55;;;;;;;5.45;1.90;;;;;;;17.07;71.41;98417.59;5059952;28;20037;-83
2022/09/10 07:31:26;;;;;;;3.30;1.70;;;;;;;17.19;71.46;98436.75;5065671;28;20033;-83
2022/09/10 07:33:53;;;;;;;2.35;1.60;;;;;;;17.13;72.00;98437.94;5068271;28;20444;-83
2022/09/10 07:36:19;;;;;;;3.35;1.65;;;;;;;17.11;71.95;98418.59;5041278;28;20028;-83
2022/09/10 07:38:44;;;;;;;4.95;1.60;;;;;;;17.33;71.21;98447.53;5061174;28;20033;-81
2022/09/10 07:41:12;;;;;;;5.68;2.10;;;;;;;16.91;72.43;98429.75;5061360;28;20132;-82
2022/09/10 07:43:39;;;;;;;4.22;1.70;;;;;;;17.01;72.78;98451.16;5059826;28;20087;-82
2022/09/10 07:46:06;;;;;;;3.88;2.03;;;;;;;17.21;71.37;98456.94;5079620;28;20036;-82
2022/09/10 07:48:31;;;;;;;4.63;1.92;;;;;;;17.25;70.97;98454.44;5056249;28;20121;-82
2022/09/10 07:51:02;;;;;;;4.05;1.75;;;;;;;17.12;72.15;98447.16;5055871;28;20029;-84
2022/09/10 07:53:27;;;;;;;3.75;1.73;;;;;;;17.21;72.24;98461.53;5066667;28;20043;-86
2022/09/10 07:56:07;;;;;;;3.53;1.58;;;;;;;17.22;72.80;98463.94;5051377;28;20040;-84
2022/09/10 07:58:34;;;;;;;2.67;1.80;;;;;;;17.13;72.85;98454.13;5062899;28;20103;-84
2022/09/10 08:01:01;;;;;;;2.15;1.52;;;;;;;17.19;72.78;98451.03;5065324;28;20017;-83
2022/09/10 08:03:27;;;;;;;3.42;1.65;;;;;;;17.25;72.81;98467.94;5031340;28;20752;-84
2022/09/10 08:06:03;;;;;;;3.05;1.80;;;;;;;17.20;73.00;98452.66;5065335;28;20545;-83
2022/09/10 08:08:30;;;;;;;2.95;1.30;;;;;;;17.11;74.33;98469.81;5041040;28;20085;-82
2022/09/10 08:11:06;;;;;;;3.55;1.60;;;;;;;16.80;75.59;98447.22;5056113;28;20044;-83
2022/09/10 08:13:33;;;;;;;;;;;;;;;17.10;74.41;98469.00;5059540;28;20021;-82
2022/09/10 08:15:58;;;;;;;;;;;;;;;17.13;74.92;98471.13;5060998;28;19920;-82
2022/09/10 08:18:24;;;;;;;2.90;1.90;;;;;;;16.95;75.44;98472.00;5061726;28;19978;-82
2022/09/10 08:20:53;;;;;;;4.88;1.65;;;;;;;17.11;74.46;98465.22;5058121;28;20151;-81
2022/09/10 08:23:19;;;;;;;5.55;2.13;;;;;;;17.04;75.64;98472.09;5065361;28;20115;-81
2022/09/10 08:25:51;;;;;;;2.75;1.48;;;;;;;16.79;76.33;98472.59;5050679;28;20116;-81
2022/09/10 08:28:21;;;;;;;1.63;1.38;;;;;;;16.76;76.01;98470.50;5061474;28;20396;-82
2022/09/10 08:30:57;;;;;;;27.42;3.28;;;;;;;16.46;77.90;98472.59;5060808;28;20026;-81
2022/09/10 08:33:23;;;;;;;34.35;5.65;;;;;;;16.78;77.17;98473.69;5070986;28;20485;-81
2022/09/10 08:35:56;;;;;;;14.48;3.25;;;;;;;16.80;77.39;98487.66;5069280;28;20028;-81
2022/09/10 08:38:31;;;;;;;5.07;2.10;;;;;;;16.71;78.16;98487.53;5064032;28;20542;-81
2022/09/10 08:40:59;;;;;;;12.82;3.00;;;;;;;16.92;76.54;98459.16;5065405;28;20086;-81
2022/09/10 08:43:57;;;;;;;7.10;2.78;;;;;;;17.02;76.70;98495.88;5067139;28;20029;-81
2022/09/10 08:46:41;;;;;;;8.70;2.30;;;;;;;17.10;76.17;98487.88;5067178;28;20028;-81
2022/09/10 08:49:50;;;;;;;7.43;2.80;;;;;;;17.05;75.74;98482.63;5076129;28;20028;-81
2022/09/10 08:52:36;;;;;;;5.97;1.88;;;;;;;17.27;75.69;98478.41;5062515;28;20033;-81
2022/09/10 08:55:01;;;;;;;4.53;2.13;;;;;;;17.23;76.77;98505.19;5076170;28;20087;-80
2022/09/10 08:57:35;;;;;;;5.70;2.17;;;;;;;17.19;75.96;98485.28;5071998;28;20032;-81
2022/09/10 09:00:02;;;;;;;3.75;2.20;;;;;;;16.97;77.07;98480.59;5063669;28;20552;-81
2022/09/10 09:02:38;;;;;;;3.80;2.33;;;;;;;17.30;75.78;98508.28;5067682;28;20092;-80
2022/09/10 09:05:14;;;;;;;6.33;3.47;;;;;;;17.40;74.92;98491.09;5087743;28;20036;-81
2022/09/10 09:07:40;;;;;;;2.97;1.85;;;;;;;17.25;75.54;98505.69;5073209;28;20020;-80
2022/09/10 09:10:23;;;;;;;4.22;2.42;;;;;;;17.39;75.61;98506.47;5062302;28;20134;-81
2022/09/10 09:13:05;;;;;;;5.53;2.13;;;;;;;17.41;75.34;98500.81;5069464;28;20036;-81
2022/09/10 09:15:50;;;;;;;3.47;2.40;;;;;;;17.24;75.62;98482.50;5068327;28;20052;-81
2022/09/10 09:18:37;;;;;;;4.10;2.35;;;;;;;17.48;75.65;98509.25;5067575;28;20040;-81
2022/09/10 09:21:32;;;;;;;4.40;2.42;;;;;;;17.37;75.91;98507.88;5070991;28;20483;-81
2022/09/10 09:23:57;;;;;;;5.13;1.85;;;;;;;17.37;75.75;98508.69;5057655;28;20036;-81
2022/09/10 09:26:33;;;;;;;7.65;2.58;;;;;;;17.30;75.61;98486.69;5052655;28;20037;-81
2022/09/10 09:29:12;;;;;;;4.25;2.03;;;;;;;17.61;74.91;98511.19;5068572;28;20048;-81
2022/09/10 09:31:45;;;;;;;2.78;2.28;;;;;;;17.46;74.92;98506.06;5062124;28;20025;-82
2022/09/10 09:34:18;;;;;;;2.92;2.20;;;;;;;17.43;75.50;98507.47;5061859;28;20392;-82
2022/09/10 09:36:54;;;;;;;6.22;2.70;;;;;;;17.33;75.20;98502.28;5065107;28;20106;-82
2022/09/10 09:39:25;;;;;;;3.30;2.38;;;;;;;17.17;76.42;98496.38;5067765;28;20083;-82
2022/09/10 09:42:05;;;;;;;4.60;2.75;;;;;;;17.06;77.47;98481.50;5063239;28;20098;-82
2022/09/10 09:44:39;;;;;;;5.07;2.35;;;;;;;17.10;75.20;98457.44;5065810;28;20028;-82
2022/09/10 09:47:07;;;;;;;4.55;3.03;;;;;;;17.11;76.68;98486.00;5050267;28;20048;-82
2022/09/10 09:49:34;;;;;;;6.65;2.60;;;;;;;17.57;75.04;98494.81;5068995;28;20036;-82
2022/09/10 09:52:13;;;;;;;3.50;2.13;;;;;;;17.60;75.07;98507.72;5065266;28;20039;-82
2022/09/10 09:54:49;;;;;;;7.10;2.72;;;;;;;17.30;76.99;98496.72;5061043;28;20035;-82
2022/09/10 09:57:19;;;;;;;4.68;2.42;;;;;;;17.37;76.19;98489.78;5063560;28;20120;-81
2022/09/10 09:59:46;;;;;;;2.60;2.35;;;;;;;17.49;75.70;98500.09;5070482;28;20423;-82
2022/09/10 10:02:20;;;;;;;4.13;2.30;;;;;;;17.57;76.45;98492.09;5056917;28;20037;-81
2022/09/10 10:04:58;;;;;;;4.30;2.33;;;;;;;17.58;76.87;98493.69;5064550;28;20032;-82
2022/09/10 10:07:31;;;;;;;5.57;2.95;;;;;;;17.52;77.05;98489.50;5064097;28;20025;-82
2022/09/10 10:09:59;;;;;;;3.13;2.08;;;;;;;17.59;76.50;98491.78;5061591;28;20016;-82
2022/09/10 10:12:30;;;;;;;5.60;2.35;;;;;;;17.44;77.21;98471.31;5065982;28;20063;-81
2022/09/10 10:14:56;;;;;;;2.72;2.35;;;;;;;17.60;77.93;98493.41;5067826;28;20020;-81
2022/09/10 10:17:39;;;;;;;5.65;3.08;;;;;;;17.66;77.08;98478.69;5062688;28;20042;-81
2022/09/10 10:20:11;;;;;;;4.03;2.15;;;;;;;17.87;76.40;98483.34;5061798;28;20024;-81
2022/09/10 10:22:39;;;;;;;2.28;2.08;;;;;;;17.96;76.37;98483.41;5063398;28;20078;-81
2022/09/10 10:25:37;;;;;;;4.93;2.20;;;;;;;18.12;75.86;98471.16;5066624;28;20123;-81
2022/09/10 10:28:12;;;;;;;3.65;2.35;;;;;;;18.24;75.89;98467.91;5052891;28;20043;-81
2022/09/10 10:30:38;;;;;;;3.22;2.50;;;;;;;18.38;74.58;98474.03;5077029;28;20078;-81
2022/09/10 10:33:03;;;;;;;2.15;1.92;;;;;;;18.26;73.75;98444.88;5061103;28;20048;-81
2022/09/10 10:35:32;;;;;;;4.07;2.70;;;;;;;18.32;75.54;98473.38;5053278;28;20035;-81
2022/09/10 10:38:19;;;;;;;4.40;2.40;;;;;;;18.58;73.44;98468.16;5064167;28;20495;-81
2022/09/10 10:41:02;;;;;;;4.15;2.45;;;;;;;18.35;74.04;98447.63;5065175;28;20057;-81
2022/09/10 10:43:51;;;;;;;4.35;2.25;;;;;;;18.66;73.25;98470.09;5067016;28;20234;-81
2022/09/10 10:46:22;;;;;;;4.78;2.13;;;;;;;18.70;72.88;98468.38;5064409;28;20028;-81
2022/09/10 10:49:14;;;;;;;3.63;2.05;;;;;;;18.43;72.90;98452.31;5072712;28;20044;-80
2022/09/10 10:51:57;;;;;;;2.42;1.80;;;;;;;18.59;72.89;98467.84;5069827;28;20158;-81
2022/09/10 10:54:40;;;;;;;4.30;2.10;;;;;;;18.47;72.47;98464.94;5063568;28;20097;-81
2022/09/10 10:57:49;;;;;;;3.92;2.22;;;;;;;18.42;72.82;98464.22;5066071;28;20029;-81
2022/09/10 11:00:18;;;;;;;3.72;1.98;;;;;;;18.57;71.65;98444.94;5069694;28;20021;-81
2022/09/10 11:02:59;;;;;;;4.95;1.70;;;;;;;18.62;71.74;98459.13;5063230;28;20020;-81
2022/09/10 11:05:34;;;;;;;6.57;2.50;;;;;;;18.53;72.07;98449.38;5065597;28;20543;-81
2022/09/10 11:08:08;;;;;;;4.78;2.58;;;;;;;18.61;72.62;98460.22;5065487;28;20028;-81
2022/09/10 11:10:43;;;;;;;3.67;2.08;;;;;;;18.61;71.71;98435.88;5062611;28;20472;-81
2022/09/10 11:13:24;;;;;;;6.22;2.22;;;;;;;18.89;70.99;98452.75;5065229;28;20033;-81
2022/09/10 11:16:19;;;;;;;4.55;2.53;;;;;;;18.87;70.45;98435.22;5062045;28;20561;-81
2022/09/10 11:18:50;;;;;;;3.50;2.70;;;;;;;18.99;71.49;98448.94;5063968;28;20035;-81
2022/09/10 11:21:40;;;;;;;2.88;2.22;;;;;;;19.00;69.86;98408.06;5069986;28;20448;-81
2022/09/10 11:24:41;;;;;;;3.92;2.55;;;;;;;19.21;69.98;98444.25;5064661;28;20048;-81
2022/09/10 11:27:23;;;;;;;3.45;2.10;;;;;;;19.16;69.88;98435.47;5061967;28;20028;-81
2022/09/10 11:30:05;;;;;;;5.38;2.60;;;;;;;19.24;69.72;98442.84;5065650;28;20461;-81
2022/09/10 11:33:14;;;;;;;4.05;2.00;;;;;;;19.20;69.76;98448.06;5066248;28;20024;-81
2022/09/10 11:35:58;;;;;;;3.03;2.05;;;;;;;19.18;69.69;98428.63;4991618;28;20044;-81
2022/09/10 11:38:47;;;;;;;7.75;2.20;;;;;;;19.08;69.70;98414.59;5002131;28;20034;-82
2022/09/10 11:41:22;;;;;;;3.70;1.88;;;;;;;19.06;69.95;98444.69;5065064;28;20047;-81
2022/09/10 11:44:16;;;;;;;2.78;2.50;;;;;;;19.04;69.96;98436.09;5060697;28;20033;-81
2022/09/10 11:46:48;;;;;;;4.65;2.30;;;;;;;19.01;70.21;98439.41;5059076;28;20512;-81
2022/09/10 11:49:21;;;;;;;2.50;2.00;;;;;;;18.99;69.51;98425.41;5067102;28;20464;-81
2022/09/10 11:51:46;;;;;;;2.70;1.98;;;;;;;18.97;68.92;98421.41;5050081;28;20043;-81